KIAB/IAB METAR and TAF weather

Enter ICAO airport designator
Station Type Date Time Source
KIAB METAR 2022/05/24 12:16 UTC NOAA

KIAB 241216Z AUTO 06012KT 4SM -RA OVC004 14/14 A2988 RMK AO2 SLP118 $


Station Type Date Time Source
KIAB Decoded METAR 2022/05/24 12:16 UTC NOAA

McConnell Air Force Base, KS, United States (KIAB) 37-37N 097-16W
May 24, 2022 - 08:16 AM EDT / 2022.05.24 1216 UTC
Wind: from the ENE (060 degrees) at 14 MPH (12 KT):0
Visibility: 4 mile(s):0
Sky conditions: overcast
Weather: light rain
Temperature: 57 F (14 C)
Dew Point: 57 F (14 C)
Relative Humidity: 100%
Pressure (altimeter): 29.88 in. Hg (1011 hPa)
ob: KIAB 241216Z AUTO 06012KT 4SM -RA OVC004 14/14 A2988 RMK AO2 SLP118
cycle: 12

Station Type Date Time Source
KIAB TAF 2022/05/24 10:27 UTC NOAA

TAF TAF KIAB 241000Z 2410/2516 09012KT 4800 RA VCTS BKN004 OVC020CB QNH2972INS
TEMPO 2415/2421 20015G25KT 3200 TSRA BKN003 OVC010CB
BECMG 2506/2507 34009KT 9999 VCSH BKN005 OVC025 QNH2971INS
TEMPO 2507/2515 4000 RA BKN003 OVC012 TX18/2421Z TN09/2510Z

Example: see airport list